createdAt,value
2023-03-06T00:01:02.528Z,11.71
2023-03-06T00:06:04.933Z,11.83
2023-03-06T00:11:07.250Z,11.72
2023-03-06T00:16:10.308Z,11.51
2023-03-06T00:21:12.503Z,11.75
2023-03-06T00:26:14.690Z,11.65
2023-03-06T00:31:16.960Z,11.69
2023-03-06T00:36:19.227Z,11.60
2023-03-06T00:41:21.556Z,11.84
2023-03-06T00:46:24.039Z,11.59
2023-03-06T00:51:26.404Z,10.41
2023-03-06T00:56:28.682Z,10.58
2023-03-06T01:01:30.877Z,10.10
2023-03-06T01:06:33.080Z,9.82
2023-03-06T01:11:35.244Z,9.74
2023-03-06T01:16:37.598Z,10.37
2023-03-06T01:21:39.909Z,10.78
2023-03-06T01:26:42.051Z,11.07
2023-03-06T01:31:44.377Z,11.13
2023-03-06T01:36:46.567Z,11.13
2023-03-06T01:41:49.079Z,11.12
2023-03-06T01:46:51.385Z,11.35
2023-03-06T01:52:02.372Z,11.14
2023-03-06T01:57:09.944Z,11.13
2023-03-06T02:02:16.025Z,11.15
2023-03-06T02:07:21.221Z,11.31
2023-03-06T02:12:24.296Z,11.38
2023-03-06T02:17:27.983Z,11.48
2023-03-06T02:22:49.018Z,11.41
2023-03-06T02:27:51.155Z,11.37
2023-03-06T02:32:53.589Z,11.38
2023-03-06T02:37:58.144Z,11.38
2023-03-06T02:43:00.356Z,11.33
2023-03-06T02:48:03.467Z,11.23
2023-03-06T02:53:06.785Z,11.22
2023-03-06T02:58:09.871Z,11.15
2023-03-06T03:03:12.138Z,11.08
2023-03-06T03:08:14.350Z,11.06
2023-03-06T03:13:16.559Z,11.03
2023-03-06T03:18:18.648Z,10.87
2023-03-06T03:23:21.220Z,10.20
2023-03-06T03:28:23.474Z,10.40
2023-03-06T03:33:26.267Z,10.56
2023-03-06T03:38:28.759Z,10.36
2023-03-06T03:43:31.268Z,10.48
2023-03-06T03:48:33.650Z,10.29
2023-03-06T03:53:35.892Z,10.10
2023-03-06T03:58:38.075Z,10.00
2023-03-06T04:03:40.311Z,9.98
2023-03-06T04:08:42.772Z,9.83
2023-03-06T04:13:45.016Z,9.86
2023-03-06T04:18:47.113Z,9.85
2023-03-06T04:23:49.238Z,9.87
2023-03-06T04:28:51.393Z,9.73
2023-03-06T04:33:53.669Z,9.67
2023-03-06T04:38:56.299Z,9.37
2023-03-06T04:43:58.450Z,9.20
2023-03-06T04:49:00.646Z,9.14
2023-03-06T04:54:04.195Z,9.13
2023-03-06T04:59:06.359Z,9.08
2023-03-06T05:04:08.465Z,9.02
2023-03-06T05:09:10.669Z,8.92
2023-03-06T05:14:12.947Z,8.98
2023-03-06T05:19:15.709Z,9.08
2023-03-06T05:24:17.828Z,9.16
2023-03-06T05:29:20.130Z,9.28
2023-03-06T05:34:22.366Z,9.24
2023-03-06T05:39:24.526Z,9.27
2023-03-06T05:44:32.526Z,9.17
2023-03-06T05:49:36.225Z,9.53
2023-03-06T05:54:38.676Z,9.34
2023-03-06T05:59:40.898Z,9.27
2023-03-06T06:04:43.965Z,9.38
2023-03-06T06:09:47.088Z,9.34
2023-03-06T06:14:49.709Z,9.49
2023-03-06T06:19:51.912Z,9.48
2023-03-06T06:24:54.063Z,9.48
2023-03-06T06:29:56.204Z,9.50
2023-03-06T06:34:58.598Z,9.45
2023-03-06T06:40:00.725Z,9.70
2023-03-06T06:45:05.603Z,9.76
2023-03-06T06:50:14.277Z,9.72
2023-03-06T06:55:16.894Z,9.69
2023-03-06T07:00:19.703Z,9.77
2023-03-06T07:05:22.243Z,9.88
2023-03-06T07:10:24.406Z,10.02
2023-03-06T07:15:27.759Z,9.96
2023-03-06T07:20:30.055Z,10.22
2023-03-06T07:25:32.377Z,10.25
2023-03-06T07:30:34.591Z,10.38
2023-03-06T07:35:36.931Z,10.63
2023-03-06T07:40:39.513Z,10.84
2023-03-06T07:45:41.732Z,10.98
2023-03-06T07:50:44.044Z,11.06
2023-03-06T07:55:46.165Z,11.02
2023-03-06T08:00:48.405Z,11.50
2023-03-06T08:05:50.670Z,11.80
2023-03-06T08:10:53.236Z,11.81
2023-03-06T08:15:56.681Z,11.85
2023-03-06T08:21:09.708Z,12.20
2023-03-06T08:26:20.709Z,12.17
2023-03-06T08:31:31.310Z,12.47
2023-03-06T08:36:34.380Z,12.74
2023-03-06T08:41:37.604Z,12.97
2023-03-06T08:46:40.562Z,13.49
2023-03-06T08:51:43.385Z,13.47
2023-03-06T08:56:45.702Z,13.77
2023-03-06T09:01:48.267Z,13.99
2023-03-06T09:06:50.765Z,14.15
2023-03-06T09:11:53.973Z,14.09
2023-03-06T09:16:56.310Z,14.38
2023-03-06T09:22:01.262Z,14.70
2023-03-06T09:27:04.966Z,14.62
2023-03-06T09:32:07.575Z,14.95
2023-03-06T09:37:09.765Z,14.94
2023-03-06T09:42:19.221Z,14.87
2023-03-06T09:47:24.355Z,14.91
2023-03-06T09:52:43.860Z,15.21
2023-03-06T09:57:53.108Z,15.26
2023-03-06T10:03:10.778Z,15.05
2023-03-06T10:08:23.735Z,15.48
2023-03-06T10:13:33.136Z,15.87
2023-03-06T10:18:38.824Z,16.07
2023-03-06T10:24:05.017Z,16.09
2023-03-06T10:29:13.174Z,16.55
2023-03-06T10:34:29.107Z,16.85
2023-03-06T10:39:32.283Z,16.74
2023-03-06T10:44:34.718Z,16.89
2023-03-06T10:49:38.193Z,16.80
2023-03-06T10:54:42.688Z,16.87
2023-03-06T10:59:57.621Z,17.04
2023-03-06T11:05:03.087Z,17.44
2023-03-06T11:10:18.345Z,17.76
2023-03-06T11:15:25.167Z,17.92
2023-03-06T11:20:51.512Z,17.75
2023-03-06T11:26:15.869Z,18.02
2023-03-06T11:31:25.937Z,17.90
2023-03-06T11:36:57.380Z,18.12
2023-03-06T11:42:20.769Z,17.91
2023-03-06T11:47:43.086Z,18.00
2023-03-06T11:53:07.153Z,17.90
2023-03-06T11:58:30.511Z,18.12
2023-03-06T12:04:03.833Z,17.56
2023-03-06T12:09:15.128Z,18.01
2023-03-06T12:14:33.150Z,17.37
2023-03-06T12:19:47.261Z,17.04
2023-03-06T12:25:12.129Z,17.02
2023-03-06T12:31:03.114Z,17.26
2023-03-06T12:36:56.109Z,17.42
2023-03-06T12:42:22.882Z,17.22
2023-03-06T12:47:28.598Z,17.24
2023-03-06T12:52:33.591Z,17.02
2023-03-06T12:57:35.937Z,17.13
2023-03-06T13:03:24.618Z,17.35
2023-03-06T13:08:47.085Z,17.33
2023-03-06T13:13:49.530Z,17.77
2023-03-06T13:19:19.347Z,17.83
2023-03-06T13:24:27.176Z,17.80
2023-03-06T13:29:38.440Z,17.88
2023-03-06T13:34:52.074Z,17.79
2023-03-06T13:40:00.006Z,18.32
2023-03-06T13:45:27.654Z,18.37
2023-03-06T13:50:43.128Z,18.46
2023-03-06T13:56:19.930Z,18.21
2023-03-06T14:01:47.377Z,18.34
2023-03-06T14:07:04.405Z,18.77
2023-03-06T14:12:13.699Z,18.99
2023-03-06T14:17:34.799Z,18.96
2023-03-06T14:22:37.768Z,18.44
2023-03-06T14:27:50.381Z,18.40
2023-03-06T14:32:55.198Z,18.77
2023-03-06T14:38:04.957Z,18.59
2023-03-06T14:43:21.146Z,18.55
2023-03-06T14:48:25.730Z,18.28
2023-03-06T14:53:30.969Z,17.77
2023-03-06T14:58:45.523Z,17.38
2023-03-06T15:03:53.396Z,17.13
2023-03-06T15:09:07.264Z,16.88
2023-03-06T15:14:21.916Z,16.55
2023-03-06T15:19:24.363Z,16.40
2023-03-06T15:24:36.337Z,15.80
2023-03-06T15:29:39.484Z,16.24
2023-03-06T15:34:41.791Z,15.92
2023-03-06T15:39:46.808Z,15.79
2023-03-06T15:44:54.266Z,15.64
2023-03-06T15:49:57.268Z,15.38
2023-03-06T15:55:00.235Z,15.62
2023-03-06T16:00:03.716Z,15.73
2023-03-06T16:05:16.535Z,15.35
2023-03-06T16:10:21.784Z,15.34
2023-03-06T16:15:30.531Z,14.92
2023-03-06T16:20:33.846Z,14.67
2023-03-06T16:25:36.967Z,14.28
2023-03-06T16:30:39.208Z,14.16
2023-03-06T16:35:41.708Z,13.90
2023-03-06T16:40:44.200Z,13.58
2023-03-06T16:45:46.888Z,13.59
2023-03-06T16:50:49.377Z,13.76
2023-03-06T16:55:51.648Z,13.80
2023-03-06T17:00:54.920Z,13.69
2023-03-06T17:05:57.162Z,13.38
2023-03-06T17:10:59.782Z,13.36
2023-03-06T17:16:04.157Z,13.08
2023-03-06T17:21:08.969Z,13.01
2023-03-06T17:26:12.771Z,12.64
2023-03-06T17:31:23.753Z,12.55
2023-03-06T17:36:26.685Z,12.83
2023-03-06T17:41:29.709Z,12.71
2023-03-06T17:46:32.461Z,12.52
2023-03-06T17:51:34.677Z,12.92
2023-03-06T17:56:38.645Z,13.13
2023-03-06T18:01:41.675Z,13.05
2023-03-06T18:06:43.868Z,13.38
2023-03-06T18:11:46.180Z,12.90
2023-03-06T18:16:48.872Z,12.48
2023-03-06T18:21:51.022Z,12.26
2023-03-06T18:26:53.147Z,12.03
2023-03-06T18:31:57.208Z,11.94
2023-03-06T18:36:59.365Z,11.55
2023-03-06T18:42:02.741Z,11.94
2023-03-06T18:47:05.046Z,12.67
2023-03-06T18:52:07.346Z,12.50
2023-03-06T18:57:12.613Z,12.60
2023-03-06T19:02:15.621Z,12.49
2023-03-06T19:07:17.836Z,12.67
2023-03-06T19:12:20.561Z,12.27
2023-03-06T19:17:24.958Z,12.29
2023-03-06T19:22:27.322Z,12.34
2023-03-06T19:27:30.578Z,12.24
2023-03-06T19:32:33.586Z,12.52
2023-03-06T19:37:36.857Z,12.77
2023-03-06T19:42:39.286Z,13.07
2023-03-06T19:47:41.610Z,12.97
2023-03-06T19:52:43.809Z,12.74
2023-03-06T19:57:46.077Z,12.68
2023-03-06T20:02:48.236Z,12.18
2023-03-06T20:07:50.875Z,12.31
2023-03-06T20:12:53.555Z,12.55
2023-03-06T20:17:56.879Z,12.78
2023-03-06T20:23:04.592Z,12.78
2023-03-06T20:28:06.754Z,12.61
2023-03-06T20:33:09.426Z,12.50
2023-03-06T20:38:12.142Z,12.35
2023-03-06T20:43:14.382Z,12.01
2023-03-06T20:48:16.639Z,12.20
2023-03-06T20:53:19.516Z,12.30
2023-03-06T20:58:23.682Z,12.16
2023-03-06T21:03:26.042Z,12.30
2023-03-06T21:08:28.285Z,12.75
2023-03-06T21:13:30.514Z,12.93
2023-03-06T21:18:32.823Z,13.24
2023-03-06T21:23:35.153Z,13.46
2023-03-06T21:34:05.340Z,13.51
2023-03-06T21:39:07.848Z,13.58
2023-03-06T21:44:11.393Z,13.69
2023-03-06T21:49:19.075Z,13.64
2023-03-06T21:54:21.911Z,13.55
2023-03-06T21:59:24.360Z,13.72
2023-03-06T22:04:36.405Z,13.82
2023-03-06T22:09:38.835Z,13.86
2023-03-06T22:14:45.647Z,13.83
2023-03-06T22:19:50.429Z,13.84
2023-03-06T22:25:00.329Z,13.69
2023-03-06T22:30:03.730Z,13.91
2023-03-06T22:35:10.005Z,13.72
2023-03-06T22:40:14.528Z,13.27
2023-03-06T22:45:17.313Z,13.29
2023-03-06T22:50:19.580Z,13.10
2023-03-06T22:55:21.731Z,13.30
2023-03-06T23:00:24.053Z,13.52
2023-03-06T23:05:28.468Z,13.51
2023-03-06T23:10:31.510Z,13.24
2023-03-06T23:15:36.628Z,13.29
2023-03-06T23:20:45.424Z,13.22
2023-03-06T23:25:47.602Z,13.31
2023-03-06T23:30:49.886Z,13.19
2023-03-06T23:35:52.252Z,13.21
2023-03-06T23:40:54.464Z,13.14
2023-03-06T23:45:57.253Z,13.14
2023-03-06T23:50:59.631Z,13.00
2023-03-06T23:56:03.360Z,12.92
